Terminal Aerodrome Forecast
Issued by NWS

Home | Current Version | Previous Version | Text Only | Print | Product List | Glossary On
Versions: 1 2 3 4 5 6 7 8 9 10 11 12
000
FTUS45 KCYS 270520
TAFAIA
TAF
KAIA 270520Z 2706/2806 05010KT P6SM VCSH SCT070 BKN200
     FM271000 08008KT P6SM VCSH BKN012
     FM271600 04009G16KT P6SM SCT020
     FM272300 12014KT P6SM -SHRA VCTS SCT050CB BKN100=

USA.gov is the U.S. government's official web portal to all federal, state and local government web resources and services.